createdAt,value
2018-10-09T00:02:06.909Z,3.40
2018-10-09T00:05:12.442Z,3.90
2018-10-09T00:08:17.897Z,3.50
2018-10-09T00:11:25.515Z,3.67
2018-10-09T00:14:31.006Z,3.97
2018-10-09T00:17:37.470Z,3.80
2018-10-09T00:20:42.882Z,4.10
2018-10-09T00:23:48.389Z,3.37
2018-10-09T00:26:53.785Z,3.57
2018-10-09T00:29:59.223Z,4.23
2018-10-09T00:33:04.726Z,4.20
2018-10-09T00:36:10.141Z,4.30
2018-10-09T00:39:16.145Z,4.47
2018-10-09T00:42:21.583Z,4.60
2018-10-09T00:45:27.088Z,4.40
2018-10-09T00:48:32.839Z,4.83
2018-10-09T00:51:38.270Z,7.40
2018-10-09T00:54:45.870Z,5.83
2018-10-09T00:57:51.281Z,7.10
2018-10-09T01:00:56.714Z,6.77
2018-10-09T01:04:02.509Z,6.13
2018-10-09T01:07:08.172Z,6.23
2018-10-09T01:10:13.594Z,6.30
2018-10-09T01:13:19.014Z,7.33
2018-10-09T01:16:24.433Z,6.93
2018-10-09T01:19:30.002Z,6.73
2018-10-09T01:22:35.486Z,7.30
2018-10-09T01:25:40.906Z,7.07
2018-10-09T01:28:46.297Z,6.83
2018-10-09T01:31:52.470Z,7.27
2018-10-09T01:34:57.970Z,6.80
2018-10-09T01:38:04.246Z,7.73
2018-10-09T01:41:09.682Z,7.30
2018-10-09T01:44:15.125Z,7.57
2018-10-09T01:47:20.545Z,7.53
2018-10-09T01:50:25.954Z,7.20
2018-10-09T01:53:31.373Z,7.67
2018-10-09T01:56:37.254Z,8.23
2018-10-09T01:59:42.651Z,7.80
2018-10-09T02:02:48.161Z,8.20
2018-10-09T02:05:53.898Z,8.47
2018-10-09T02:08:59.353Z,7.43
2018-10-09T02:12:04.793Z,6.83
2018-10-09T02:15:10.274Z,8.57
2018-10-09T02:18:15.768Z,8.60
2018-10-09T02:21:21.216Z,8.03
2018-10-09T02:24:26.721Z,8.53
2018-10-09T02:27:32.141Z,9.03
2018-10-09T02:30:37.529Z,8.17
2018-10-09T02:33:43.226Z,8.57
2018-10-09T02:36:49.043Z,9.07
2018-10-09T02:39:54.458Z,8.03
2018-10-09T02:42:59.933Z,7.93
2018-10-09T02:46:05.361Z,7.97
2018-10-09T02:49:10.802Z,8.70
2018-10-09T02:52:16.199Z,8.57
2018-10-09T02:55:21.722Z,8.17
2018-10-09T02:58:27.145Z,7.67
2018-10-09T03:01:32.537Z,8.00
2018-10-09T03:04:38.070Z,8.23
2018-10-09T03:07:43.477Z,8.17
2018-10-09T03:10:48.889Z,7.90
2018-10-09T03:13:54.408Z,7.83
2018-10-09T03:16:59.795Z,8.00
2018-10-09T03:20:05.573Z,7.80
2018-10-09T03:23:11.038Z,7.67
2018-10-09T03:26:17.210Z,8.80
2018-10-09T03:29:22.641Z,7.43
2018-10-09T03:32:28.025Z,7.50
2018-10-09T03:35:33.829Z,7.23
2018-10-09T03:38:39.279Z,6.57
2018-10-09T03:41:44.693Z,6.67
2018-10-09T03:44:50.243Z,6.80
2018-10-09T03:47:55.649Z,6.63
2018-10-09T03:51:01.576Z,6.83
2018-10-09T03:54:07.528Z,6.77
2018-10-09T03:57:13.229Z,6.60
2018-10-09T04:00:18.673Z,6.43
2018-10-09T04:03:24.128Z,7.20
2018-10-09T04:06:29.557Z,7.03
2018-10-09T04:09:35.012Z,7.07
2018-10-09T04:12:40.769Z,6.93
2018-10-09T04:15:46.289Z,7.97
2018-10-09T04:18:51.725Z,7.10
2018-10-09T04:21:57.153Z,6.97
2018-10-09T04:25:02.585Z,7.03
2018-10-09T04:28:08.170Z,7.70
2018-10-09T04:31:13.561Z,7.83
2018-10-09T04:34:19.033Z,6.90
2018-10-09T04:37:24.454Z,7.37
2018-10-09T04:40:29.837Z,7.63
2018-10-09T04:43:35.392Z,8.47
2018-10-09T04:46:41.145Z,7.33
2018-10-09T04:49:46.562Z,8.13
2018-10-09T04:52:52.257Z,7.63
2018-10-09T04:55:57.817Z,7.53
2018-10-09T04:59:03.233Z,8.27
2018-10-09T05:02:08.701Z,8.17
2018-10-09T05:05:14.160Z,9.30
2018-10-09T05:08:19.581Z,8.03
2018-10-09T05:11:24.976Z,9.20
2018-10-09T05:14:30.538Z,9.07
2018-10-09T05:17:37.131Z,8.40
2018-10-09T05:20:42.545Z,8.63
2018-10-09T05:23:48.732Z,10.00
2018-10-09T05:26:54.133Z,9.40
2018-10-09T05:29:59.834Z,9.17
2018-10-09T05:33:05.333Z,9.77
2018-10-09T05:36:10.756Z,9.57
2018-10-09T05:39:16.181Z,9.37
2018-10-09T05:42:21.626Z,10.13
2018-10-09T05:45:27.056Z,10.57
2018-10-09T05:48:32.597Z,10.03
2018-10-09T05:51:38.018Z,10.57
2018-10-09T05:54:43.582Z,10.47
2018-10-09T05:57:49.023Z,10.37
2018-10-09T06:00:54.646Z,10.30
2018-10-09T06:04:00.117Z,9.53
2018-10-09T06:07:05.886Z,9.93
2018-10-09T06:10:11.677Z,10.10
2018-10-09T06:13:17.174Z,11.53
2018-10-09T06:16:22.617Z,10.50
2018-10-09T06:19:28.013Z,11.47
2018-10-09T06:22:33.533Z,11.07
2018-10-09T06:25:38.990Z,10.30
2018-10-09T06:28:44.406Z,11.73
2018-10-09T06:31:49.848Z,11.53
2018-10-09T06:34:56.058Z,11.77
2018-10-09T06:38:01.710Z,10.70
2018-10-09T06:41:07.253Z,11.00
2018-10-09T06:44:13.202Z,11.33
2018-10-09T06:47:18.661Z,12.00
2018-10-09T06:50:24.794Z,11.97
2018-10-09T06:53:30.544Z,11.63
2018-10-09T06:56:36.200Z,11.17
2018-10-09T06:59:42.167Z,11.60
2018-10-09T07:02:47.670Z,11.57
2018-10-09T07:05:53.866Z,12.47
2018-10-09T07:08:59.932Z,14.23
2018-10-09T07:12:05.451Z,12.53
2018-10-09T07:15:13.629Z,12.90
2018-10-09T07:18:30.563Z,12.50
2018-10-09T07:21:36.016Z,11.93
2018-10-09T07:24:41.575Z,13.50
2018-10-09T07:27:47.154Z,13.70
2018-10-09T07:30:52.770Z,14.47
2018-10-09T07:33:58.226Z,14.07
2018-10-09T07:37:03.662Z,14.63
2018-10-09T07:40:09.090Z,14.07
2018-10-09T07:43:14.523Z,13.97
2018-10-09T07:46:19.994Z,14.03
2018-10-09T07:49:25.414Z,14.47
2018-10-09T07:52:30.853Z,14.50
2018-10-09T07:55:36.285Z,16.43
2018-10-09T07:58:41.852Z,18.23
2018-10-09T08:01:47.415Z,17.27
2018-10-09T08:04:53.018Z,16.23
2018-10-09T08:07:58.583Z,15.57
2018-10-09T08:11:04.031Z,16.67
2018-10-09T08:14:10.225Z,16.10
2018-10-09T08:17:15.673Z,15.53
2018-10-09T08:20:21.098Z,15.10
2018-10-09T08:23:26.597Z,14.50
2018-10-09T08:26:32.002Z,15.83
2018-10-09T08:29:38.325Z,15.10
2018-10-09T08:32:43.874Z,12.50
2018-10-09T08:35:49.526Z,15.00
2018-10-09T08:38:54.962Z,14.60
2018-10-09T08:42:00.539Z,14.17
2018-10-09T08:45:07.476Z,13.77
2018-10-09T08:48:12.923Z,14.23
2018-10-09T08:51:18.342Z,15.17
2018-10-09T08:54:23.806Z,13.97
2018-10-09T08:57:29.326Z,13.63
2018-10-09T09:00:35.210Z,11.93
2018-10-09T09:03:40.686Z,10.73
2018-10-09T09:06:46.302Z,10.93
2018-10-09T09:09:51.704Z,11.70
2018-10-09T09:12:57.131Z,10.93
2018-10-09T09:16:02.662Z,10.27
2018-10-09T09:19:08.078Z,9.50
2018-10-09T09:22:13.578Z,9.30
2018-10-09T09:25:19.019Z,8.97
2018-10-09T09:28:24.614Z,10.60
2018-10-09T09:31:30.369Z,11.93
2018-10-09T09:34:36.235Z,14.23
2018-10-09T09:37:41.650Z,14.97
2018-10-09T09:40:47.427Z,14.23
2018-10-09T09:43:52.876Z,16.00
2018-10-09T09:46:58.339Z,15.30
2018-10-09T09:50:04.646Z,16.30
2018-10-09T09:53:10.451Z,16.07
2018-10-09T09:56:16.058Z,15.77
2018-10-09T09:59:21.540Z,16.33
2018-10-09T10:02:27.121Z,17.23
2018-10-09T10:05:33.155Z,15.17
2018-10-09T10:08:39.146Z,16.37
2018-10-09T10:11:44.549Z,17.60
2018-10-09T10:14:49.995Z,16.80
2018-10-09T10:17:55.421Z,15.37
2018-10-09T10:21:00.823Z,16.20
2018-10-09T10:24:06.323Z,16.27
2018-10-09T10:27:12.085Z,16.57
2018-10-09T10:30:17.629Z,15.93
2018-10-09T10:33:23.214Z,16.50
2018-10-09T10:36:28.664Z,16.80
2018-10-09T10:39:34.282Z,16.87
2018-10-09T10:42:39.758Z,15.33
2018-10-09T10:45:45.242Z,16.10
2018-10-09T10:49:03.632Z,15.00
2018-10-09T10:52:09.612Z,16.23
2018-10-09T10:55:15.114Z,15.33
2018-10-09T10:58:20.602Z,14.57
2018-10-09T11:01:26.097Z,15.70
2018-10-09T11:04:31.758Z,15.57
2018-10-09T11:07:37.526Z,15.40
2018-10-09T11:10:42.987Z,13.57
2018-10-09T11:13:48.918Z,15.17
2018-10-09T11:16:54.327Z,13.63
2018-10-09T11:19:59.753Z,13.30
2018-10-09T11:23:05.327Z,13.87
2018-10-09T11:26:11.205Z,14.73
2018-10-09T11:29:17.149Z,12.30
2018-10-09T11:32:23.119Z,13.87
2018-10-09T11:35:28.755Z,13.63
2018-10-09T11:38:34.424Z,11.57
2018-10-09T11:41:39.917Z,12.93
2018-10-09T11:44:45.495Z,12.20
2018-10-09T11:47:50.921Z,13.27
2018-10-09T11:50:56.603Z,10.73
2018-10-09T11:54:02.032Z,11.53
2018-10-09T11:57:07.821Z,11.40
2018-10-09T12:00:13.463Z,10.87
2018-10-09T12:03:18.919Z,9.50
2018-10-09T12:06:24.730Z,10.20
2018-10-09T12:09:30.214Z,9.40
2018-10-09T12:12:37.863Z,9.67
2018-10-09T12:15:43.320Z,8.63
2018-10-09T12:18:48.950Z,8.67
2018-10-09T12:21:54.385Z,8.80
2018-10-09T12:24:59.855Z,8.27
2018-10-09T12:28:05.287Z,7.77
2018-10-09T12:31:10.725Z,6.63
2018-10-09T12:34:16.234Z,7.87
2018-10-09T12:37:21.655Z,7.27
2018-10-09T12:40:27.037Z,6.17
2018-10-09T12:43:34.418Z,7.17
2018-10-09T12:46:43.999Z,7.60
2018-10-09T12:49:49.442Z,8.47
2018-10-09T12:52:54.910Z,6.87
2018-10-09T12:56:00.546Z,6.93
2018-10-09T12:59:06.118Z,6.87
2018-10-09T13:02:11.756Z,7.13
2018-10-09T13:05:17.167Z,5.90
2018-10-09T13:08:22.594Z,6.67
2018-10-09T13:11:27.978Z,6.97
2018-10-09T13:14:34.098Z,6.20
2018-10-09T13:17:40.071Z,6.57
2018-10-09T13:20:45.735Z,6.47
2018-10-09T13:23:51.320Z,6.50
2018-10-09T13:26:57.115Z,6.83
2018-10-09T13:30:02.748Z,6.60
2018-10-09T13:33:08.197Z,6.73
2018-10-09T13:36:13.644Z,6.13
2018-10-09T13:39:19.401Z,6.07
2018-10-09T13:42:24.851Z,6.60
2018-10-09T13:45:30.278Z,7.23
2018-10-09T13:48:36.806Z,6.73
2018-10-09T13:51:42.323Z,6.17
2018-10-09T13:54:47.849Z,6.07
2018-10-09T13:57:53.323Z,6.50
2018-10-09T14:00:58.764Z,6.60
2018-10-09T14:04:04.199Z,7.07
2018-10-09T14:07:09.610Z,6.47
2018-10-09T14:10:15.106Z,6.73
2018-10-09T14:13:20.668Z,6.43
2018-10-09T14:16:26.114Z,6.80
2018-10-09T14:19:31.739Z,6.03
2018-10-09T14:22:37.232Z,7.00
2018-10-09T14:25:42.873Z,5.83
2018-10-09T14:28:48.640Z,6.63
2018-10-09T14:31:54.054Z,7.50
2018-10-09T14:34:59.556Z,6.80
2018-10-09T14:38:05.251Z,7.00
2018-10-09T14:41:10.646Z,7.83
2018-10-09T14:44:16.115Z,7.00
2018-10-09T14:47:21.505Z,8.53
2018-10-09T14:50:26.899Z,7.07
2018-10-09T14:53:32.298Z,7.27
2018-10-09T14:56:39.807Z,7.67
2018-10-09T14:59:45.530Z,7.47
2018-10-09T15:02:51.528Z,8.17
2018-10-09T15:05:57.251Z,7.20
2018-10-09T15:09:02.690Z,8.17
2018-10-09T15:12:09.514Z,7.20
2018-10-09T15:15:16.039Z,6.40
2018-10-09T15:18:21.434Z,8.07
2018-10-09T15:21:27.219Z,8.10
2018-10-09T15:24:32.706Z,7.90
2018-10-09T15:27:38.166Z,8.17
2018-10-09T15:30:43.548Z,7.83
2018-10-09T15:33:48.971Z,7.67
2018-10-09T15:36:54.406Z,8.50
2018-10-09T15:39:59.887Z,6.93
2018-10-09T15:43:05.343Z,6.67
2018-10-09T15:46:10.993Z,7.23
2018-10-09T15:49:16.390Z,7.47
2018-10-09T15:52:21.810Z,6.63
2018-10-09T15:55:27.211Z,8.77
2018-10-09T15:58:32.633Z,7.77
2018-10-09T16:01:38.039Z,7.20
2018-10-09T16:04:43.495Z,8.33
2018-10-09T16:07:50.382Z,7.73
2018-10-09T16:10:57.975Z,7.43
2018-10-09T16:14:04.352Z,7.57
2018-10-09T16:17:10.111Z,6.90
2018-10-09T16:20:15.482Z,7.13
2018-10-09T16:23:20.894Z,7.03
2018-10-09T16:26:26.285Z,7.30
2018-10-09T16:29:32.263Z,8.07
2018-10-09T16:32:37.910Z,7.60
2018-10-09T16:35:43.447Z,7.33
2018-10-09T16:38:49.453Z,7.00
2018-10-09T16:41:55.826Z,7.50
2018-10-09T16:45:01.315Z,6.70
2018-10-09T16:48:07.582Z,6.77
2018-10-09T16:51:13.023Z,6.17
2018-10-09T16:54:18.495Z,7.67
2018-10-09T16:57:23.923Z,6.63
2018-10-09T17:00:29.975Z,6.30
2018-10-09T17:03:35.604Z,6.47
2018-10-09T17:06:41.063Z,6.13
2018-10-09T17:09:46.707Z,5.93
2018-10-09T17:12:52.229Z,5.73
2018-10-09T17:15:57.634Z,6.53
2018-10-09T17:19:03.830Z,7.00
2018-10-09T17:22:09.242Z,6.87
2018-10-09T17:25:14.701Z,6.00
2018-10-09T17:28:20.136Z,7.10
2018-10-09T17:31:25.721Z,6.50
2018-10-09T17:34:31.163Z,6.50
2018-10-09T17:37:36.591Z,6.80
2018-10-09T17:40:42.013Z,6.63
2018-10-09T17:43:47.501Z,6.30
2018-10-09T17:46:52.908Z,5.83
2018-10-09T17:49:58.583Z,5.77
2018-10-09T17:53:04.061Z,6.93
2018-10-09T17:56:09.521Z,6.73
2018-10-09T17:59:14.958Z,6.63
2018-10-09T18:02:20.422Z,6.83
2018-10-09T18:05:26.019Z,6.60
2018-10-09T18:08:31.488Z,6.20
2018-10-09T18:11:36.964Z,6.47
2018-10-09T18:14:42.434Z,6.00
2018-10-09T18:17:48.014Z,6.77
2018-10-09T18:20:53.461Z,5.93
2018-10-09T18:23:58.894Z,6.00
2018-10-09T18:27:04.303Z,6.23
2018-10-09T18:30:11.207Z,6.33
2018-10-09T18:33:18.813Z,6.77
2018-10-09T18:36:27.230Z,6.70
2018-10-09T18:39:35.993Z,7.40
2018-10-09T18:42:52.512Z,7.30
2018-10-09T18:46:02.924Z,6.93
2018-10-09T18:49:11.919Z,7.80
2018-10-09T18:52:19.534Z,7.03
2018-10-09T18:55:28.841Z,6.93
2018-10-09T18:58:36.731Z,7.20
2018-10-09T19:01:42.148Z,6.87
2018-10-09T19:04:47.655Z,8.30
2018-10-09T19:07:53.379Z,8.17
2018-10-09T19:10:58.794Z,8.50
2018-10-09T19:14:05.109Z,8.03
2018-10-09T19:17:10.542Z,8.40
2018-10-09T19:20:15.966Z,8.80
2018-10-09T19:23:21.417Z,7.63
2018-10-09T19:26:26.854Z,8.10
2018-10-09T19:29:32.306Z,9.77
2018-10-09T19:32:38.331Z,9.10
2018-10-09T19:35:43.878Z,9.50
2018-10-09T19:38:49.309Z,8.67
2018-10-09T19:41:54.766Z,9.13
2018-10-09T19:45:00.268Z,9.50
2018-10-09T19:48:05.714Z,10.07
2018-10-09T19:51:11.305Z,10.13
2018-10-09T19:54:16.806Z,10.70
2018-10-09T19:57:22.220Z,10.70
2018-10-09T20:00:27.651Z,10.03
2018-10-09T20:03:33.079Z,9.97
2018-10-09T20:06:38.549Z,10.70
2018-10-09T20:09:43.950Z,10.43
2018-10-09T20:12:49.362Z,10.80
2018-10-09T20:15:54.854Z,10.37
2018-10-09T20:19:00.279Z,10.40
2018-10-09T20:22:08.698Z,10.17
2018-10-09T20:25:14.287Z,11.13
2018-10-09T20:28:19.709Z,11.03
2018-10-09T20:31:25.550Z,11.10
2018-10-09T20:34:31.050Z,10.53
2018-10-09T20:37:38.546Z,11.03
2018-10-09T20:40:46.026Z,11.77
2018-10-09T20:43:51.654Z,10.50
2018-10-09T20:46:57.081Z,10.13
2018-10-09T20:50:02.528Z,10.40
2018-10-09T20:53:08.068Z,10.50
2018-10-09T20:56:13.478Z,10.37
2018-10-09T20:59:18.909Z,10.87
2018-10-09T21:02:24.346Z,10.73
2018-10-09T21:05:31.829Z,10.93
2018-10-09T21:08:39.587Z,10.67
2018-10-09T21:11:45.023Z,10.50
2018-10-09T21:14:50.712Z,11.80
2018-10-09T21:17:56.198Z,10.50
2018-10-09T21:21:01.816Z,10.60
2018-10-09T21:24:07.306Z,10.80
2018-10-09T21:27:13.459Z,10.67
2018-10-09T21:30:18.921Z,10.53
2018-10-09T21:33:24.442Z,11.33
2018-10-09T21:36:29.848Z,11.07
2018-10-09T21:39:35.457Z,10.07
2018-10-09T21:42:41.005Z,10.87
2018-10-09T21:45:46.650Z,11.63
2018-10-09T21:48:52.058Z,11.27
2018-10-09T21:51:57.467Z,11.57
2018-10-09T21:55:02.904Z,10.90
2018-10-09T21:58:08.295Z,10.60
2018-10-09T22:01:13.933Z,11.87
2018-10-09T22:04:19.386Z,10.77
2018-10-09T22:07:24.817Z,11.03
2018-10-09T22:10:30.198Z,11.23
2018-10-09T22:13:35.963Z,10.23
2018-10-09T22:16:41.526Z,11.20
2018-10-09T22:19:47.882Z,10.60
2018-10-09T22:22:54.027Z,10.33
2018-10-09T22:25:59.762Z,11.07
2018-10-09T22:29:05.178Z,10.80
2018-10-09T22:32:10.623Z,10.50
2018-10-09T22:35:16.578Z,10.30
2018-10-09T22:38:22.026Z,10.73
2018-10-09T22:41:27.444Z,9.63
2018-10-09T22:44:32.981Z,9.93
2018-10-09T22:47:38.425Z,10.63
2018-10-09T22:50:43.920Z,10.80
2018-10-09T22:53:49.434Z,9.87
2018-10-09T22:56:55.038Z,10.03
2018-10-09T23:00:00.502Z,10.10
2018-10-09T23:03:05.974Z,10.00
2018-10-09T23:06:11.392Z,10.53
2018-10-09T23:09:16.819Z,10.53
2018-10-09T23:12:22.211Z,10.73
2018-10-09T23:15:27.630Z,10.50
2018-10-09T23:18:33.032Z,11.13
2018-10-09T23:21:38.463Z,10.43
2018-10-09T23:24:44.000Z,9.90
2018-10-09T23:27:49.427Z,10.87
2018-10-09T23:30:54.838Z,10.17
2018-10-09T23:34:00.314Z,9.90
2018-10-09T23:37:06.078Z,10.10
2018-10-09T23:40:11.487Z,10.40
2018-10-09T23:43:16.986Z,9.93
2018-10-09T23:46:22.623Z,10.80
2018-10-09T23:49:28.022Z,10.03
2018-10-09T23:52:34.047Z,9.63
2018-10-09T23:55:39.470Z,9.53
2018-10-09T23:58:44.910Z,10.00
